Pellston, MI (49769)

2:01 PM EDT on July 24, 2016 (GMT -0400)
Creekside, 4 Miles WSW Bliss | | Change Station

Elev 708 ft 45.65 °N, 84.92 °W | Updated 10 seconds ago

Overcast
Overcast
74.9 °F
Feels Like 75 °F
N
5.0
Wind Variable Wind from WSW
Gusts 6.0 mph

Today
High -- | Low -- °F
--% Chance of Precip.
Yesterday
High -- | Low -- °F
Precip. -- in
Pressure 29.83 in
Visibility 9.0 miles
Clouds Overcast 2200 ft
Heat Index 75 °F
Dew Point 70 °F
Humidity 86%
Rainfall 0.02 in
Snow Depth Not available.
6:14 AM 9:16 PM
Waning Gibbous, 74% visible
METAR KPLN 241754Z AUTO 21009KT 9SM OVC022 26/21 A2983 RMK AO2 SLP099 T02560211 10278 20200 55002
Pressure 29.83 in
Visibility 9.0 miles
Clouds Overcast 2200 ft
Heat Index 75 °F
Dew Point 70 °F
Humidity 86%
Rainfall 0.02 in
Snow Depth Not available.
6:14 AM 9:16 PM
Waning Gibbous, 74% visible
METAR KPLN 241754Z AUTO 21009KT 9SM OVC022 26/21 A2983 RMK AO2 SLP099 T02560211 10278 20200 55002

10-Day Weather Forecast

Almanac

Astronomy

Jul. 24, 2016 Rise Set
Actual Time
Civil Twilight
Nautical Twilight
Astronomical Twilight
Moon
Length of Visible Light
Length of Day
Tomorrow will be .
, % of the Moon is Illuminated

Today's Extremes

State Highs State Lows

Community

WunderPhotos

Upload Photos

1,927,142 photos uploaded!

WunderBlog® & News

Nearby

Air Quality

  Air Quality AQ Index Pollutant
Not available.

Snow Depth

Station Depth Elevation

Earthquake Activity

City Distance Mag. Time & Date
Minimum magnitude displayed is 2.5.

Coastal Water Temperatures

Place Temperature

Stations

Nearby Weather Stations

Station Location Temp. Windchill Dew Point Humidity Wind Precip. Elev Updated Type
                   

Watches & Warnings

There are currently no watches in effect.